sensor_id;sensor_type;location;lat;lon;timestamp;P1;durP1;ratioP1;P2;durP2;ratioP2
79706;SDS011;69200;53.612;-2.416;2023-06-22T00:00:18;5.35;;;2.22;;
79706;SDS011;69200;53.612;-2.416;2023-06-22T00:02:45;4.43;;;1.98;;
79706;SDS011;69200;53.612;-2.416;2023-06-22T00:05:10;6.00;;;2.53;;
79706;SDS011;69200;53.612;-2.416;2023-06-22T00:07:35;5.72;;;2.67;;
79706;SDS011;69200;53.612;-2.416;2023-06-22T00:10:01;5.50;;;2.70;;
79706;SDS011;69200;53.612;-2.416;2023-06-22T00:12:26;7.30;;;2.80;;
79706;SDS011;69200;53.612;-2.416;2023-06-22T00:14:52;7.20;;;2.47;;
79706;SDS011;69200;53.612;-2.416;2023-06-22T00:17:17;5.90;;;2.35;;
79706;SDS011;69200;53.612;-2.416;2023-06-22T00:19:43;7.10;;;2.33;;
79706;SDS011;69200;53.612;-2.416;2023-06-22T00:22:08;9.20;;;3.35;;
79706;SDS011;69200;53.612;-2.416;2023-06-22T00:24:34;5.88;;;2.50;;
79706;SDS011;69200;53.612;-2.416;2023-06-22T00:26:59;6.45;;;2.50;;
79706;SDS011;69200;53.612;-2.416;2023-06-22T00:29:24;7.93;;;2.83;;
79706;SDS011;69200;53.612;-2.416;2023-06-22T00:31:50;6.82;;;3.25;;
79706;SDS011;69200;53.612;-2.416;2023-06-22T00:34:16;7.18;;;3.65;;
79706;SDS011;69200;53.612;-2.416;2023-06-22T00:36:41;6.97;;;3.05;;
79706;SDS011;69200;53.612;-2.416;2023-06-22T00:39:06;8.18;;;3.40;;
79706;SDS011;69200;53.612;-2.416;2023-06-22T00:41:33;7.20;;;2.85;;
79706;SDS011;69200;53.612;-2.416;2023-06-22T00:43:59;9.30;;;2.85;;
79706;SDS011;69200;53.612;-2.416;2023-06-22T00:46:24;7.05;;;3.30;;
79706;SDS011;69200;53.612;-2.416;2023-06-22T00:48:50;7.18;;;3.13;;
79706;SDS011;69200;53.612;-2.416;2023-06-22T00:51:17;6.38;;;2.72;;
79706;SDS011;69200;53.612;-2.416;2023-06-22T00:53:49;7.22;;;2.90;;
79706;SDS011;69200;53.612;-2.416;2023-06-22T00:56:15;4.95;;;2.50;;
79706;SDS011;69200;53.612;-2.416;2023-06-22T00:58:44;6.07;;;2.90;;
79706;SDS011;69200;53.612;-2.416;2023-06-22T01:01:11;7.57;;;2.88;;
79706;SDS011;69200;53.612;-2.416;2023-06-22T01:03:36;6.82;;;3.15;;
79706;SDS011;69200;53.612;-2.416;2023-06-22T01:06:07;8.45;;;2.83;;
79706;SDS011;69200;53.612;-2.416;2023-06-22T01:08:46;6.60;;;2.72;;
79706;SDS011;69200;53.612;-2.416;2023-06-22T01:11:21;6.85;;;2.47;;
79706;SDS011;69200;53.612;-2.416;2023-06-22T01:16:30;5.68;;;2.15;;
79706;SDS011;69200;53.612;-2.416;2023-06-22T01:19:09;5.03;;;2.60;;
79706;SDS011;69200;53.612;-2.416;2023-06-22T01:21:54;5.90;;;2.45;;
79706;SDS011;69200;53.612;-2.416;2023-06-22T01:24:26;5.35;;;2.20;;
79706;SDS011;69200;53.612;-2.416;2023-06-22T01:29:35;6.78;;;2.35;;
79706;SDS011;69200;53.612;-2.416;2023-06-22T01:32:03;6.63;;;2.60;;
79706;SDS011;69200;53.612;-2.416;2023-06-22T01:34:30;6.45;;;2.75;;
79706;SDS011;69200;53.612;-2.416;2023-06-22T01:36:57;6.63;;;2.60;;
79706;SDS011;69200;53.612;-2.416;2023-06-22T01:39:23;5.70;;;2.30;;
79706;SDS011;69200;53.612;-2.416;2023-06-22T01:41:50;5.47;;;2.17;;
79706;SDS011;69200;53.612;-2.416;2023-06-22T01:44:15;6.15;;;2.10;;
79706;SDS011;69200;53.612;-2.416;2023-06-22T01:46:41;5.07;;;2.10;;
79706;SDS011;69200;53.612;-2.416;2023-06-22T01:49:07;6.85;;;2.50;;
79706;SDS011;69200;53.612;-2.416;2023-06-22T01:51:33;4.45;;;1.90;;
79706;SDS011;69200;53.612;-2.416;2023-06-22T01:53:59;8.85;;;2.33;;
79706;SDS011;69200;53.612;-2.416;2023-06-22T01:56:24;8.43;;;2.90;;
79706;SDS011;69200;53.612;-2.416;2023-06-22T01:58:57;6.78;;;2.22;;
79706;SDS011;69200;53.612;-2.416;2023-06-22T02:01:35;5.35;;;2.03;;
79706;SDS011;69200;53.612;-2.416;2023-06-22T02:04:10;7.65;;;2.03;;
79706;SDS011;69200;53.612;-2.416;2023-06-22T02:06:39;5.85;;;2.42;;
79706;SDS011;69200;53.612;-2.416;2023-06-22T02:09:17;5.80;;;2.38;;
79706;SDS011;69200;53.612;-2.416;2023-06-22T02:11:47;4.97;;;1.92;;
79706;SDS011;69200;53.612;-2.416;2023-06-22T02:14:16;5.55;;;2.50;;
79706;SDS011;69200;53.612;-2.416;2023-06-22T02:16:43;5.20;;;2.47;;
79706;SDS011;69200;53.612;-2.416;2023-06-22T02:19:08;5.13;;;2.33;;
79706;SDS011;69200;53.612;-2.416;2023-06-22T02:21:34;5.40;;;2.40;;
79706;SDS011;69200;53.612;-2.416;2023-06-22T02:23:59;5.35;;;2.28;;
79706;SDS011;69200;53.612;-2.416;2023-06-22T02:26:25;6.30;;;2.28;;
79706;SDS011;69200;53.612;-2.416;2023-06-22T02:28:51;5.55;;;2.47;;
79706;SDS011;69200;53.612;-2.416;2023-06-22T02:31:17;4.43;;;2.10;;
79706;SDS011;69200;53.612;-2.416;2023-06-22T02:33:43;5.80;;;2.53;;
79706;SDS011;69200;53.612;-2.416;2023-06-22T02:36:08;5.93;;;2.38;;
79706;SDS011;69200;53.612;-2.416;2023-06-22T02:38:37;5.90;;;2.05;;
79706;SDS011;69200;53.612;-2.416;2023-06-22T02:41:03;4.80;;;2.00;;
79706;SDS011;69200;53.612;-2.416;2023-06-22T02:43:28;4.70;;;2.20;;
79706;SDS011;69200;53.612;-2.416;2023-06-22T02:45:54;6.68;;;2.70;;
79706;SDS011;69200;53.612;-2.416;2023-06-22T02:48:20;9.18;;;2.92;;
79706;SDS011;69200;53.612;-2.416;2023-06-22T02:50:45;4.65;;;2.30;;
79706;SDS011;69200;53.612;-2.416;2023-06-22T02:53:10;4.60;;;1.90;;
79706;SDS011;69200;53.612;-2.416;2023-06-22T02:55:36;4.88;;;2.17;;
79706;SDS011;69200;53.612;-2.416;2023-06-22T02:58:01;5.90;;;2.30;;
79706;SDS011;69200;53.612;-2.416;2023-06-22T03:00:29;9.05;;;1.90;;
79706;SDS011;69200;53.612;-2.416;2023-06-22T03:02:55;5.88;;;2.10;;
79706;SDS011;69200;53.612;-2.416;2023-06-22T03:05:22;7.57;;;2.45;;
79706;SDS011;69200;53.612;-2.416;2023-06-22T03:07:47;4.88;;;2.20;;
79706;SDS011;69200;53.612;-2.416;2023-06-22T03:10:13;7.30;;;2.70;;
79706;SDS011;69200;53.612;-2.416;2023-06-22T03:12:40;5.32;;;2.10;;
79706;SDS011;69200;53.612;-2.416;2023-06-22T03:15:06;7.32;;;2.50;;
79706;SDS011;69200;53.612;-2.416;2023-06-22T03:17:33;4.97;;;2.20;;
79706;SDS011;69200;53.612;-2.416;2023-06-22T03:20:00;5.55;;;2.55;;
79706;SDS011;69200;53.612;-2.416;2023-06-22T03:22:37;6.22;;;2.20;;
79706;SDS011;69200;53.612;-2.416;2023-06-22T03:25:04;7.85;;;2.35;;
79706;SDS011;69200;53.612;-2.416;2023-06-22T03:27:34;7.25;;;2.85;;
79706;SDS011;69200;53.612;-2.416;2023-06-22T03:30:00;7.63;;;2.25;;
79706;SDS011;69200;53.612;-2.416;2023-06-22T03:32:25;7.38;;;2.60;;
79706;SDS011;69200;53.612;-2.416;2023-06-22T03:34:53;5.85;;;2.70;;
79706;SDS011;69200;53.612;-2.416;2023-06-22T03:37:18;8.13;;;2.97;;
79706;SDS011;69200;53.612;-2.416;2023-06-22T03:39:44;6.10;;;2.75;;
79706;SDS011;69200;53.612;-2.416;2023-06-22T03:42:09;6.40;;;2.92;;
79706;SDS011;69200;53.612;-2.416;2023-06-22T03:44:35;8.45;;;3.20;;
79706;SDS011;69200;53.612;-2.416;2023-06-22T03:47:01;7.80;;;3.35;;
79706;SDS011;69200;53.612;-2.416;2023-06-22T03:49:29;7.68;;;3.33;;
79706;SDS011;69200;53.612;-2.416;2023-06-22T03:51:55;7.95;;;3.65;;
79706;SDS011;69200;53.612;-2.416;2023-06-22T03:54:20;9.48;;;3.70;;
79706;SDS011;69200;53.612;-2.416;2023-06-22T03:56:45;10.38;;;4.03;;
79706;SDS011;69200;53.612;-2.416;2023-06-22T03:59:11;9.02;;;3.80;;
79706;SDS011;69200;53.612;-2.416;2023-06-22T04:01:36;7.60;;;3.78;;
79706;SDS011;69200;53.612;-2.416;2023-06-22T04:04:01;7.85;;;4.13;;
79706;SDS011;69200;53.612;-2.416;2023-06-22T04:06:27;8.02;;;3.28;;
79706;SDS011;69200;53.612;-2.416;2023-06-22T04:08:52;8.65;;;3.60;;
79706;SDS011;69200;53.612;-2.416;2023-06-22T04:11:18;10.50;;;4.13;;
79706;SDS011;69200;53.612;-2.416;2023-06-22T04:13:43;9.02;;;4.22;;
79706;SDS011;69200;53.612;-2.416;2023-06-22T04:16:09;9.30;;;3.55;;
79706;SDS011;69200;53.612;-2.416;2023-06-22T04:18:34;8.77;;;3.85;;
79706;SDS011;69200;53.612;-2.416;2023-06-22T04:21:00;6.95;;;3.85;;
79706;SDS011;69200;53.612;-2.416;2023-06-22T04:23:25;7.43;;;3.75;;
79706;SDS011;69200;53.612;-2.416;2023-06-22T04:25:50;9.68;;;3.30;;
79706;SDS011;69200;53.612;-2.416;2023-06-22T04:28:16;8.00;;;3.25;;
79706;SDS011;69200;53.612;-2.416;2023-06-22T04:30:42;9.20;;;4.32;;
79706;SDS011;69200;53.612;-2.416;2023-06-22T04:33:11;6.50;;;3.08;;
79706;SDS011;69200;53.612;-2.416;2023-06-22T04:35:37;10.98;;;3.45;;
79706;SDS011;69200;53.612;-2.416;2023-06-22T04:38:06;7.25;;;3.45;;
79706;SDS011;69200;53.612;-2.416;2023-06-22T04:40:31;8.05;;;3.70;;
79706;SDS011;69200;53.612;-2.416;2023-06-22T04:42:57;7.75;;;3.50;;
79706;SDS011;69200;53.612;-2.416;2023-06-22T04:45:22;6.70;;;2.92;;
79706;SDS011;69200;53.612;-2.416;2023-06-22T04:47:49;6.85;;;2.90;;
79706;SDS011;69200;53.612;-2.416;2023-06-22T04:50:14;6.53;;;2.50;;
79706;SDS011;69200;53.612;-2.416;2023-06-22T04:52:40;6.85;;;3.28;;
79706;SDS011;69200;53.612;-2.416;2023-06-22T04:55:05;7.60;;;3.47;;
79706;SDS011;69200;53.612;-2.416;2023-06-22T04:57:31;6.32;;;2.97;;
79706;SDS011;69200;53.612;-2.416;2023-06-22T04:59:58;8.95;;;3.45;;
79706;SDS011;69200;53.612;-2.416;2023-06-22T05:02:36;6.93;;;3.08;;
79706;SDS011;69200;53.612;-2.416;2023-06-22T05:05:02;8.20;;;3.10;;
79706;SDS011;69200;53.612;-2.416;2023-06-22T05:07:32;6.35;;;2.72;;
79706;SDS011;69200;53.612;-2.416;2023-06-22T05:10:01;6.40;;;2.70;;
79706;SDS011;69200;53.612;-2.416;2023-06-22T05:12:30;7.18;;;3.00;;
79706;SDS011;69200;53.612;-2.416;2023-06-22T05:14:56;7.55;;;2.80;;
79706;SDS011;69200;53.612;-2.416;2023-06-22T05:17:21;7.53;;;2.60;;
79706;SDS011;69200;53.612;-2.416;2023-06-22T05:19:47;7.47;;;2.38;;
79706;SDS011;69200;53.612;-2.416;2023-06-22T05:22:15;6.25;;;2.80;;
79706;SDS011;69200;53.612;-2.416;2023-06-22T05:24:41;5.68;;;2.72;;
79706;SDS011;69200;53.612;-2.416;2023-06-22T05:27:07;7.35;;;3.08;;
79706;SDS011;69200;53.612;-2.416;2023-06-22T05:29:33;7.97;;;2.78;;
79706;SDS011;69200;53.612;-2.416;2023-06-22T05:31:58;7.40;;;3.28;;
79706;SDS011;69200;53.612;-2.416;2023-06-22T05:34:24;9.25;;;2.90;;
79706;SDS011;69200;53.612;-2.416;2023-06-22T05:36:49;6.25;;;2.65;;
79706;SDS011;69200;53.612;-2.416;2023-06-22T05:39:15;5.25;;;2.67;;
79706;SDS011;69200;53.612;-2.416;2023-06-22T05:41:40;7.53;;;3.40;;
79706;SDS011;69200;53.612;-2.416;2023-06-22T05:44:06;5.85;;;2.70;;
79706;SDS011;69200;53.612;-2.416;2023-06-22T05:46:31;7.13;;;3.05;;
79706;SDS011;69200;53.612;-2.416;2023-06-22T05:48:57;6.35;;;3.25;;
79706;SDS011;69200;53.612;-2.416;2023-06-22T05:51:22;5.70;;;2.85;;
79706;SDS011;69200;53.612;-2.416;2023-06-22T05:53:48;5.55;;;2.80;;
79706;SDS011;69200;53.612;-2.416;2023-06-22T05:56:15;6.32;;;2.65;;
79706;SDS011;69200;53.612;-2.416;2023-06-22T05:58:41;5.45;;;2.75;;
79706;SDS011;69200;53.612;-2.416;2023-06-22T06:01:06;6.32;;;2.83;;
79706;SDS011;69200;53.612;-2.416;2023-06-22T06:03:32;6.15;;;2.67;;
79706;SDS011;69200;53.612;-2.416;2023-06-22T06:05:57;5.60;;;2.25;;
79706;SDS011;69200;53.612;-2.416;2023-06-22T06:08:22;6.00;;;2.58;;
79706;SDS011;69200;53.612;-2.416;2023-06-22T06:10:48;5.93;;;2.75;;
79706;SDS011;69200;53.612;-2.416;2023-06-22T06:13:13;8.25;;;3.20;;
79706;SDS011;69200;53.612;-2.416;2023-06-22T06:15:39;6.05;;;2.80;;
79706;SDS011;69200;53.612;-2.416;2023-06-22T06:18:05;6.32;;;2.90;;
79706;SDS011;69200;53.612;-2.416;2023-06-22T06:20:31;6.88;;;2.83;;
79706;SDS011;69200;53.612;-2.416;2023-06-22T06:22:57;5.82;;;2.53;;
79706;SDS011;69200;53.612;-2.416;2023-06-22T06:25:22;6.78;;;2.30;;
79706;SDS011;69200;53.612;-2.416;2023-06-22T06:27:49;6.95;;;2.80;;
79706;SDS011;69200;53.612;-2.416;2023-06-22T06:30:17;4.97;;;2.60;;
79706;SDS011;69200;53.612;-2.416;2023-06-22T06:32:44;6.00;;;2.72;;
79706;SDS011;69200;53.612;-2.416;2023-06-22T06:35:10;5.80;;;2.63;;
79706;SDS011;69200;53.612;-2.416;2023-06-22T06:37:38;7.78;;;3.63;;
79706;SDS011;69200;53.612;-2.416;2023-06-22T06:40:05;7.38;;;2.88;;
79706;SDS011;69200;53.612;-2.416;2023-06-22T06:42:38;4.65;;;2.38;;
79706;SDS011;69200;53.612;-2.416;2023-06-22T06:45:09;5.45;;;2.30;;
79706;SDS011;69200;53.612;-2.416;2023-06-22T06:47:38;6.25;;;2.58;;
79706;SDS011;69200;53.612;-2.416;2023-06-22T06:50:05;6.22;;;2.83;;
79706;SDS011;69200;53.612;-2.416;2023-06-22T06:52:31;5.53;;;2.58;;
79706;SDS011;69200;53.612;-2.416;2023-06-22T06:54:57;7.15;;;2.67;;
79706;SDS011;69200;53.612;-2.416;2023-06-22T06:57:22;6.47;;;2.40;;
79706;SDS011;69200;53.612;-2.416;2023-06-22T06:59:48;6.75;;;2.88;;
79706;SDS011;69200;53.612;-2.416;2023-06-22T07:02:14;6.32;;;2.50;;
79706;SDS011;69200;53.612;-2.416;2023-06-22T07:04:40;4.93;;;2.50;;
79706;SDS011;69200;53.612;-2.416;2023-06-22T07:07:06;6.45;;;2.83;;
79706;SDS011;69200;53.612;-2.416;2023-06-22T07:09:31;5.43;;;3.10;;
79706;SDS011;69200;53.612;-2.416;2023-06-22T07:11:56;6.32;;;3.00;;
79706;SDS011;69200;53.612;-2.416;2023-06-22T07:14:22;9.60;;;2.67;;
79706;SDS011;69200;53.612;-2.416;2023-06-22T07:16:47;5.60;;;2.38;;
79706;SDS011;69200;53.612;-2.416;2023-06-22T07:19:13;5.13;;;2.40;;
79706;SDS011;69200;53.612;-2.416;2023-06-22T07:21:38;4.72;;;1.92;;
79706;SDS011;69200;53.612;-2.416;2023-06-22T07:24:04;4.18;;;2.15;;
79706;SDS011;69200;53.612;-2.416;2023-06-22T07:26:31;5.38;;;2.70;;
79706;SDS011;69200;53.612;-2.416;2023-06-22T07:28:56;6.47;;;2.60;;
79706;SDS011;69200;53.612;-2.416;2023-06-22T07:31:23;5.15;;;2.10;;
79706;SDS011;69200;53.612;-2.416;2023-06-22T07:33:49;6.00;;;2.40;;
79706;SDS011;69200;53.612;-2.416;2023-06-22T07:36:14;6.70;;;2.38;;
79706;SDS011;69200;53.612;-2.416;2023-06-22T07:38:41;5.35;;;2.00;;
79706;SDS011;69200;53.612;-2.416;2023-06-22T07:41:06;5.00;;;1.70;;
79706;SDS011;69200;53.612;-2.416;2023-06-22T07:43:32;5.38;;;1.95;;
79706;SDS011;69200;53.612;-2.416;2023-06-22T07:45:59;5.38;;;1.90;;
79706;SDS011;69200;53.612;-2.416;2023-06-22T07:48:24;6.22;;;1.98;;
79706;SDS011;69200;53.612;-2.416;2023-06-22T07:50:50;4.13;;;1.70;;
79706;SDS011;69200;53.612;-2.416;2023-06-22T07:53:17;5.57;;;1.90;;
79706;SDS011;69200;53.612;-2.416;2023-06-22T07:55:43;4.95;;;1.83;;
79706;SDS011;69200;53.612;-2.416;2023-06-22T07:58:08;5.47;;;2.00;;
79706;SDS011;69200;53.612;-2.416;2023-06-22T08:00:34;6.53;;;2.03;;
79706;SDS011;69200;53.612;-2.416;2023-06-22T08:02:59;5.57;;;1.80;;
79706;SDS011;69200;53.612;-2.416;2023-06-22T08:05:24;4.00;;;1.80;;
79706;SDS011;69200;53.612;-2.416;2023-06-22T08:07:50;5.97;;;1.50;;
79706;SDS011;69200;53.612;-2.416;2023-06-22T08:10:16;5.05;;;1.75;;
79706;SDS011;69200;53.612;-2.416;2023-06-22T08:12:41;5.05;;;1.83;;
79706;SDS011;69200;53.612;-2.416;2023-06-22T08:15:07;5.90;;;1.70;;
79706;SDS011;69200;53.612;-2.416;2023-06-22T08:17:34;4.22;;;1.70;;
79706;SDS011;69200;53.612;-2.416;2023-06-22T08:20:01;3.58;;;1.52;;
79706;SDS011;69200;53.612;-2.416;2023-06-22T08:22:30;6.10;;;1.92;;
79706;SDS011;69200;53.612;-2.416;2023-06-22T08:24:55;4.43;;;1.85;;
79706;SDS011;69200;53.612;-2.416;2023-06-22T08:27:20;4.55;;;1.83;;
79706;SDS011;69200;53.612;-2.416;2023-06-22T08:29:48;5.63;;;1.70;;
79706;SDS011;69200;53.612;-2.416;2023-06-22T08:32:14;6.80;;;2.05;;
79706;SDS011;69200;53.612;-2.416;2023-06-22T08:34:40;4.25;;;1.70;;
79706;SDS011;69200;53.612;-2.416;2023-06-22T08:37:10;5.40;;;1.70;;
79706;SDS011;69200;53.612;-2.416;2023-06-22T08:39:36;5.47;;;1.73;;
79706;SDS011;69200;53.612;-2.416;2023-06-22T08:42:01;6.47;;;2.05;;
79706;SDS011;69200;53.612;-2.416;2023-06-22T08:44:27;4.75;;;2.05;;
79706;SDS011;69200;53.612;-2.416;2023-06-22T08:46:52;4.30;;;1.90;;
79706;SDS011;69200;53.612;-2.416;2023-06-22T08:49:17;4.82;;;1.77;;
79706;SDS011;69200;53.612;-2.416;2023-06-22T08:51:43;7.35;;;2.00;;
79706;SDS011;69200;53.612;-2.416;2023-06-22T08:54:10;6.63;;;2.53;;
79706;SDS011;69200;53.612;-2.416;2023-06-22T08:56:36;5.30;;;2.08;;
79706;SDS011;69200;53.612;-2.416;2023-06-22T08:59:01;6.25;;;2.70;;
79706;SDS011;69200;53.612;-2.416;2023-06-22T09:01:27;5.03;;;2.15;;
79706;SDS011;69200;53.612;-2.416;2023-06-22T09:03:52;5.97;;;2.22;;
79706;SDS011;69200;53.612;-2.416;2023-06-22T09:06:22;6.47;;;2.08;;
79706;SDS011;69200;53.612;-2.416;2023-06-22T09:08:48;5.30;;;2.13;;
79706;SDS011;69200;53.612;-2.416;2023-06-22T09:11:14;6.60;;;2.13;;
79706;SDS011;69200;53.612;-2.416;2023-06-22T09:13:39;4.60;;;1.80;;
79706;SDS011;69200;53.612;-2.416;2023-06-22T09:16:05;5.45;;;2.30;;
79706;SDS011;69200;53.612;-2.416;2023-06-22T09:18:31;4.20;;;1.90;;
79706;SDS011;69200;53.612;-2.416;2023-06-22T09:20:57;5.65;;;2.00;;
79706;SDS011;69200;53.612;-2.416;2023-06-22T09:23:22;4.15;;;1.85;;
79706;SDS011;69200;53.612;-2.416;2023-06-22T09:25:48;6.15;;;2.05;;
79706;SDS011;69200;53.612;-2.416;2023-06-22T09:28:14;6.47;;;2.30;;
79706;SDS011;69200;53.612;-2.416;2023-06-22T09:30:40;6.50;;;2.35;;
79706;SDS011;69200;53.612;-2.416;2023-06-22T09:33:05;6.18;;;2.40;;
79706;SDS011;69200;53.612;-2.416;2023-06-22T09:35:31;4.53;;;1.90;;
79706;SDS011;69200;53.612;-2.416;2023-06-22T09:37:56;7.70;;;2.17;;
79706;SDS011;69200;53.612;-2.416;2023-06-22T09:40:22;5.90;;;2.20;;
79706;SDS011;69200;53.612;-2.416;2023-06-22T09:42:47;4.68;;;1.90;;
79706;SDS011;69200;53.612;-2.416;2023-06-22T09:45:12;6.88;;;2.40;;
79706;SDS011;69200;53.612;-2.416;2023-06-22T09:47:38;4.97;;;2.05;;
79706;SDS011;69200;53.612;-2.416;2023-06-22T09:50:03;6.78;;;2.13;;
79706;SDS011;69200;53.612;-2.416;2023-06-22T09:52:30;6.93;;;2.20;;
79706;SDS011;69200;53.612;-2.416;2023-06-22T09:54:55;4.75;;;2.10;;
79706;SDS011;69200;53.612;-2.416;2023-06-22T09:57:21;6.03;;;2.10;;
79706;SDS011;69200;53.612;-2.416;2023-06-22T09:59:46;5.18;;;2.10;;
79706;SDS011;69200;53.612;-2.416;2023-06-22T10:02:12;8.88;;;2.45;;
79706;SDS011;69200;53.612;-2.416;2023-06-22T10:04:38;8.32;;;2.38;;
79706;SDS011;69200;53.612;-2.416;2023-06-22T10:07:05;4.97;;;2.20;;
79706;SDS011;69200;53.612;-2.416;2023-06-22T10:09:31;5.35;;;2.72;;
79706;SDS011;69200;53.612;-2.416;2023-06-22T10:11:56;5.47;;;2.65;;
79706;SDS011;69200;53.612;-2.416;2023-06-22T10:14:21;5.45;;;2.10;;
79706;SDS011;69200;53.612;-2.416;2023-06-22T10:16:47;7.25;;;2.40;;
79706;SDS011;69200;53.612;-2.416;2023-06-22T10:19:13;5.50;;;2.45;;
79706;SDS011;69200;53.612;-2.416;2023-06-22T10:21:38;4.50;;;2.10;;
79706;SDS011;69200;53.612;-2.416;2023-06-22T10:24:04;5.22;;;2.50;;
79706;SDS011;69200;53.612;-2.416;2023-06-22T10:26:33;4.82;;;2.40;;
79706;SDS011;69200;53.612;-2.416;2023-06-22T10:28:59;6.78;;;2.47;;
79706;SDS011;69200;53.612;-2.416;2023-06-22T10:31:25;6.47;;;2.42;;
79706;SDS011;69200;53.612;-2.416;2023-06-22T10:33:50;5.40;;;2.22;;
79706;SDS011;69200;53.612;-2.416;2023-06-22T10:36:16;6.05;;;2.03;;
79706;SDS011;69200;53.612;-2.416;2023-06-22T10:38:41;6.20;;;2.45;;
79706;SDS011;69200;53.612;-2.416;2023-06-22T10:41:06;5.25;;;2.05;;
79706;SDS011;69200;53.612;-2.416;2023-06-22T10:43:32;5.97;;;1.98;;
79706;SDS011;69200;53.612;-2.416;2023-06-22T10:45:57;4.75;;;2.30;;
79706;SDS011;69200;53.612;-2.416;2023-06-22T10:48:23;6.13;;;2.42;;
79706;SDS011;69200;53.612;-2.416;2023-06-22T10:50:48;4.97;;;2.10;;
79706;SDS011;69200;53.612;-2.416;2023-06-22T10:53:13;4.55;;;2.00;;
79706;SDS011;69200;53.612;-2.416;2023-06-22T10:55:39;5.75;;;2.10;;
79706;SDS011;69200;53.612;-2.416;2023-06-22T10:58:04;5.30;;;2.45;;
79706;SDS011;69200;53.612;-2.416;2023-06-22T11:00:30;6.20;;;2.05;;
79706;SDS011;69200;53.612;-2.416;2023-06-22T11:02:55;4.40;;;2.00;;
79706;SDS011;69200;53.612;-2.416;2023-06-22T11:05:20;5.57;;;2.30;;
79706;SDS011;69200;53.612;-2.416;2023-06-22T11:07:46;4.72;;;2.10;;
79706;SDS011;69200;53.612;-2.416;2023-06-22T11:10:12;4.45;;;1.80;;
79706;SDS011;69200;53.612;-2.416;2023-06-22T11:12:38;4.85;;;2.00;;
79706;SDS011;69200;53.612;-2.416;2023-06-22T11:15:03;6.88;;;2.88;;
79706;SDS011;69200;53.612;-2.416;2023-06-22T11:17:29;6.05;;;2.40;;
79706;SDS011;69200;53.612;-2.416;2023-06-22T11:19:55;4.70;;;2.05;;
79706;SDS011;69200;53.612;-2.416;2023-06-22T11:22:20;5.85;;;2.50;;
79706;SDS011;69200;53.612;-2.416;2023-06-22T11:24:45;6.05;;;2.22;;
79706;SDS011;69200;53.612;-2.416;2023-06-22T11:27:11;6.32;;;2.20;;
79706;SDS011;69200;53.612;-2.416;2023-06-22T11:29:36;5.32;;;2.25;;
79706;SDS011;69200;53.612;-2.416;2023-06-22T11:32:03;5.47;;;2.03;;
79706;SDS011;69200;53.612;-2.416;2023-06-22T11:34:29;4.05;;;1.88;;
79706;SDS011;69200;53.612;-2.416;2023-06-22T11:36:55;5.78;;;2.15;;
79706;SDS011;69200;53.612;-2.416;2023-06-22T11:39:20;5.95;;;2.40;;
79706;SDS011;69200;53.612;-2.416;2023-06-22T11:41:45;4.22;;;2.10;;
79706;SDS011;69200;53.612;-2.416;2023-06-22T11:44:11;5.93;;;2.20;;
79706;SDS011;69200;53.612;-2.416;2023-06-22T11:46:36;7.38;;;2.42;;
79706;SDS011;69200;53.612;-2.416;2023-06-22T11:49:02;5.38;;;2.35;;
79706;SDS011;69200;53.612;-2.416;2023-06-22T11:51:27;7.35;;;2.42;;
79706;SDS011;69200;53.612;-2.416;2023-06-22T11:53:53;5.60;;;2.00;;
79706;SDS011;69200;53.612;-2.416;2023-06-22T11:56:19;5.72;;;2.22;;
79706;SDS011;69200;53.612;-2.416;2023-06-22T11:58:44;5.95;;;2.55;;
79706;SDS011;69200;53.612;-2.416;2023-06-22T12:01:10;6.30;;;2.40;;
79706;SDS011;69200;53.612;-2.416;2023-06-22T12:03:35;6.22;;;2.47;;
79706;SDS011;69200;53.612;-2.416;2023-06-22T12:06:00;7.20;;;2.83;;
79706;SDS011;69200;53.612;-2.416;2023-06-22T12:08:26;6.07;;;2.60;;
79706;SDS011;69200;53.612;-2.416;2023-06-22T12:10:51;6.28;;;2.60;;
79706;SDS011;69200;53.612;-2.416;2023-06-22T12:13:18;8.93;;;2.90;;
79706;SDS011;69200;53.612;-2.416;2023-06-22T12:15:44;5.55;;;2.55;;
79706;SDS011;69200;53.612;-2.416;2023-06-22T12:18:10;6.60;;;2.30;;
79706;SDS011;69200;53.612;-2.416;2023-06-22T12:20:36;6.47;;;2.20;;
79706;SDS011;69200;53.612;-2.416;2023-06-22T12:23:02;5.32;;;2.55;;
79706;SDS011;69200;53.612;-2.416;2023-06-22T12:25:27;8.32;;;2.78;;
79706;SDS011;69200;53.612;-2.416;2023-06-22T12:27:52;6.90;;;2.58;;
79706;SDS011;69200;53.612;-2.416;2023-06-22T12:30:18;5.72;;;2.15;;
79706;SDS011;69200;53.612;-2.416;2023-06-22T12:32:44;7.32;;;2.95;;
79706;SDS011;69200;53.612;-2.416;2023-06-22T12:35:09;7.47;;;2.53;;
79706;SDS011;69200;53.612;-2.416;2023-06-22T12:37:39;6.07;;;2.40;;
79706;SDS011;69200;53.612;-2.416;2023-06-22T12:40:06;5.53;;;2.47;;
79706;SDS011;69200;53.612;-2.416;2023-06-22T12:42:32;5.78;;;2.17;;
79706;SDS011;69200;53.612;-2.416;2023-06-22T12:44:57;5.07;;;2.33;;
79706;SDS011;69200;53.612;-2.416;2023-06-22T12:47:23;5.13;;;2.43;;
79706;SDS011;69200;53.612;-2.416;2023-06-22T12:49:48;5.55;;;2.17;;
79706;SDS011;69200;53.612;-2.416;2023-06-22T12:52:13;7.00;;;2.10;;
79706;SDS011;69200;53.612;-2.416;2023-06-22T12:54:39;4.40;;;2.13;;
79706;SDS011;69200;53.612;-2.416;2023-06-22T12:57:04;6.15;;;2.47;;
79706;SDS011;69200;53.612;-2.416;2023-06-22T12:59:30;6.43;;;2.25;;
79706;SDS011;69200;53.612;-2.416;2023-06-22T13:01:55;6.55;;;2.58;;
79706;SDS011;69200;53.612;-2.416;2023-06-22T13:04:21;6.90;;;2.60;;
79706;SDS011;69200;53.612;-2.416;2023-06-22T13:06:46;6.05;;;2.65;;
79706;SDS011;69200;53.612;-2.416;2023-06-22T13:09:13;4.40;;;2.28;;
79706;SDS011;69200;53.612;-2.416;2023-06-22T13:11:39;4.63;;;2.15;;
79706;SDS011;69200;53.612;-2.416;2023-06-22T13:14:04;7.38;;;2.20;;
79706;SDS011;69200;53.612;-2.416;2023-06-22T13:16:29;5.32;;;2.40;;
79706;SDS011;69200;53.612;-2.416;2023-06-22T13:18:55;4.93;;;2.22;;
79706;SDS011;69200;53.612;-2.416;2023-06-22T13:21:20;6.18;;;2.60;;
79706;SDS011;69200;53.612;-2.416;2023-06-22T13:23:45;5.63;;;2.28;;
79706;SDS011;69200;53.612;-2.416;2023-06-22T13:26:11;5.97;;;2.47;;
79706;SDS011;69200;53.612;-2.416;2023-06-22T13:28:36;5.55;;;2.72;;
79706;SDS011;69200;53.612;-2.416;2023-06-22T13:31:02;5.93;;;2.38;;
79706;SDS011;69200;53.612;-2.416;2023-06-22T13:33:27;5.78;;;2.08;;
79706;SDS011;69200;53.612;-2.416;2023-06-22T13:35:52;7.25;;;2.67;;
79706;SDS011;69200;53.612;-2.416;2023-06-22T13:38:18;6.03;;;2.05;;
79706;SDS011;69200;53.612;-2.416;2023-06-22T13:40:43;6.25;;;2.58;;
79706;SDS011;69200;53.612;-2.416;2023-06-22T13:43:09;5.65;;;2.28;;
79706;SDS011;69200;53.612;-2.416;2023-06-22T13:45:34;7.13;;;2.65;;
79706;SDS011;69200;53.612;-2.416;2023-06-22T13:47:59;6.88;;;3.25;;
79706;SDS011;69200;53.612;-2.416;2023-06-22T13:50:25;6.15;;;2.70;;
79706;SDS011;69200;53.612;-2.416;2023-06-22T13:52:50;5.90;;;2.65;;
79706;SDS011;69200;53.612;-2.416;2023-06-22T13:55:16;8.88;;;3.00;;
79706;SDS011;69200;53.612;-2.416;2023-06-22T13:57:42;7.13;;;2.47;;
79706;SDS011;69200;53.612;-2.416;2023-06-22T14:00:08;5.65;;;2.67;;
79706;SDS011;69200;53.612;-2.416;2023-06-22T14:02:34;7.53;;;2.63;;
79706;SDS011;69200;53.612;-2.416;2023-06-22T14:05:00;7.75;;;2.40;;
79706;SDS011;69200;53.612;-2.416;2023-06-22T14:07:27;6.35;;;2.63;;
79706;SDS011;69200;53.612;-2.416;2023-06-22T14:09:52;7.18;;;2.95;;
79706;SDS011;69200;53.612;-2.416;2023-06-22T14:12:18;5.63;;;2.40;;
79706;SDS011;69200;53.612;-2.416;2023-06-22T14:14:44;8.60;;;2.63;;
79706;SDS011;69200;53.612;-2.416;2023-06-22T14:17:09;6.60;;;2.60;;
79706;SDS011;69200;53.612;-2.416;2023-06-22T14:19:35;6.65;;;2.70;;
79706;SDS011;69200;53.612;-2.416;2023-06-22T14:22:01;7.65;;;2.72;;
79706;SDS011;69200;53.612;-2.416;2023-06-22T14:24:26;6.00;;;2.53;;
79706;SDS011;69200;53.612;-2.416;2023-06-22T14:26:52;5.55;;;2.40;;
79706;SDS011;69200;53.612;-2.416;2023-06-22T14:29:17;5.97;;;2.80;;
79706;SDS011;69200;53.612;-2.416;2023-06-22T14:31:45;6.90;;;2.90;;